Latest Weather Observations for Bellambi

IDN60901

Issued at 4:21 pm EST Thursday 25 August 2016 (issued every 10 minutes, with the page automatically refreshed every 10 minutes)

About weather observations | Map of Sydney area stations | Latest observations for Sydney area | Other Formats
Station Details ID: 068228 Name: BELLAMBI AWS Lat: -34.37 Lon: 150.93 Height: 10.0 m
Data from the previous 72 hours. | See also: Recent months at Bellambi
Date/Time
EST
Temp
°C
App
Temp
°C
Dew
Point
°C
Rel
Hum
%
Delta-T
°C
Wind Press
QNH
hPa
Press
MSL
hPa
Rain since
9am
mm
Dir  Spd
km/h
Gust
km/h
Spd
kts
Gust
kts
25/04:00pm 14.4 10.2 5.7 56 4.1 S 17 20 9 11 - - 0.0
25/03:30pm 14.5 9.9 6.6 59 3.8 SSE 20 24 11 13 - - 0.0
25/03:00pm 14.4 9.1 6.7 60 3.7 SSE 24 28 13 15 - - 0.0
25/02:30pm 14.5 9.2 5.0 53 4.4 SSW 22 30 12 16 - - 0.0
25/02:00pm 16.3 11.9 5.0 47 5.4 SSW 17 24 9 13 - - 0.0
25/01:30pm 15.0 10.6 4.7 50 4.8 SSW 17 28 9 15 - - 0.0
25/01:00pm 14.5 8.4 5.0 53 4.4 S 26 33 14 18 - - 0.0
25/12:30pm 14.4 6.8 4.1 50 4.7 S 33 41 18 22 - - 0.0
25/12:00pm 14.6 8.5 4.6 51 4.6 SSW 26 33 14 18 - - 0.0
25/11:30am 14.8 9.1 4.8 51 4.7 SSW 24 33 13 18 - - 0.0
25/11:00am 14.2 7.7 4.5 52 4.5 SW 28 37 15 20 - - 0.0
25/10:30am 13.6 8.0 5.3 57 3.9 SW 24 30 13 16 - - 0.0
25/10:00am 13.5 8.3 5.7 59 3.7 WSW 22 35 12 19 - - 0.0
25/09:30am 12.5 6.8 4.7 59 3.6 SW 24 35 13 19 - - 0.0
25/09:00am 11.7 6.7 4.4 61 3.3 SW 20 32 11 17 - - 43.2
25/08:30am 10.7 5.9 4.6 66 2.7 SW 19 30 10 16 - - 43.2
25/08:00am 10.5 5.8 5.1 69 2.5 SW 19 26 10 14 - - 43.2
25/07:30am 10.4 5.7 5.2 70 2.4 SW 19 28 10 15 - - 43.2
25/07:00am 9.6 4.3 5.0 73 2.1 SW 22 32 12 17 - - 43.2
25/06:30am 9.3 4.6 5.3 76 1.8 SW 19 24 10 13 - - 43.2
25/06:00am 9.3 5.0 5.3 76 1.8 SW 17 24 9 13 - - 43.2
25/05:30am 9.4 5.1 5.2 75 1.9 WSW 17 24 9 13 - - 43.2
25/05:00am 9.2 4.3 5.2 76 1.8 SW 20 24 11 13 - - 43.2
25/04:30am 8.9 4.3 5.6 80 1.5 WSW 19 24 10 13 - - 43.2
25/04:00am 8.9 3.8 6.0 82 1.3 SW 22 32 12 17 - - 43.2
25/03:30am 8.8 3.7 6.1 83 1.2 SW 22 32 12 17 - - 43.2
25/03:00am 8.9 3.5 6.5 85 1.1 SW 24 35 13 19 - - 43.2
25/02:30am 9.0 4.6 7.3 89 0.8 SW 20 30 11 16 - - 43.0
25/02:00am 9.1 4.3 7.5 90 0.8 SW 22 30 12 16 - - 43.0
25/01:30am 9.4 4.7 7.8 90 0.8 SW 22 33 12 18 - - 42.8
25/01:00am 9.2 5.5 7.8 91 0.7 SW 17 24 9 13 - - 42.6
25/12:30am 9.2 5.5 8.0 92 0.6 SW 17 22 9 12 - - 42.4
25/12:00am 9.3 5.1 8.1 92 0.6 SW 20 28 11 15 - - 42.0
 
Date/Time
EST
Temp
°C
App
Temp
°C
Dew
Point
°C
Rel
Hum
%
Delta-T
°C
Wind Press
QNH
hPa
Press
MSL
hPa
Rain since
9am
mm
Dir  Spd
km/h
Gust
km/h
Spd
kts
Gust
kts
24/11:30pm 9.4 5.2 8.3 93 0.5 SW 20 32 11 17 - - 41.8
24/11:00pm 9.3 4.7 8.2 93 0.5 SW 22 30 12 16 - - 41.2
24/10:30pm 9.4 4.8 8.3 93 0.5 SW 22 30 12 16 - - 40.6
24/10:00pm 9.6 5.5 8.7 94 0.4 SW 20 30 11 16 - - 39.4
24/09:30pm 9.6 5.5 8.8 95 0.4 SW 20 28 11 15 - - 38.4
24/09:00pm 9.7 4.9 8.9 95 0.4 SW 24 32 13 17 - - 37.6
24/08:48pm 9.8 4.6 8.9 94 0.4 SW 26 35 14 19 - - 37.0
24/08:36pm 9.8 4.6 8.9 94 0.4 SW 26 35 14 19 - - 36.4
24/08:30pm 9.9 4.4 9.0 94 0.4 SW 28 39 15 21 - - 36.2
24/08:19pm 10.0 4.5 9.1 94 0.4 SW 28 39 15 21 - - 35.8
24/08:00pm 9.9 4.7 9.0 94 0.4 WSW 26 37 14 20 - - 34.6
24/07:30pm 10.0 4.1 9.1 94 0.4 SW 30 43 16 23 - - 32.6
24/07:21pm 10.3 4.1 9.5 95 0.4 SW 32 43 17 23 - - 31.8
24/07:12pm 10.4 4.6 9.6 95 0.4 SW 30 39 16 21 - - 31.0
24/07:00pm 10.2 4.7 9.3 94 0.4 SW 28 37 15 20 - - 30.2
24/06:30pm 10.9 6.8 10.0 94 0.5 SW 22 30 12 16 - - 26.2
24/06:10pm 12.4 6.1 11.1 92 0.7 S 35 44 19 24 - - 22.8
24/06:00pm 12.4 5.3 11.0 91 0.7 SSE 39 50 21 27 - - 21.8
24/05:47pm 12.5 5.5 11.1 91 0.7 SSE 39 52 21 28 - - 20.2
24/05:30pm 12.8 6.1 10.9 88 1.0 SE 37 43 20 23 - - 17.4
24/05:00pm 12.9 6.5 10.6 86 1.2 SE 35 41 19 22 - - 15.8
24/04:38pm 12.7 7.3 10.9 89 0.9 SE 30 35 16 19 - - 15.4
24/04:30pm 12.4 7.8 11.1 92 0.7 SSE 26 37 14 20 - - 15.4
24/04:00pm 11.9 7.3 11.0 94 0.5 SSW 26 44 14 24 - - 14.8
24/03:30pm 11.5 7.2 10.6 94 0.5 SW 24 32 13 17 - - 13.8
24/03:24pm 11.5 7.5 10.6 94 0.5 SW 22 28 12 15 - - 13.2
24/03:00pm 11.7 8.1 10.4 92 0.7 SW 20 28 11 15 - - 7.8
24/02:30pm 12.1 9.1 10.8 92 0.7 SW 17 24 9 13 - - 7.6
24/02:02pm 12.1 8.8 11.0 93 0.6 SW 19 24 10 13 - - 7.6
24/02:00pm 12.1 8.8 11.0 93 0.6 SW 19 24 10 13 - - 7.6
24/01:30pm 11.8 8.8 10.5 92 0.7 SW 17 24 9 13 - - 7.2
24/01:00pm 11.9 9.6 10.3 90 0.8 SW 13 20 7 11 - - 5.8
24/12:50pm 12.2 9.2 10.6 90 0.8 SSW 17 28 9 15 - - 5.6
24/12:33pm 12.4 7.7 10.6 89 0.9 S 26 30 14 16 - - 5.6
24/12:30pm 12.4 7.7 10.6 89 0.9 S 26 30 14 16 - - 5.6
24/12:00pm 12.6 9.2 11.2 91 0.7 S 20 28 11 15 - - 5.4
24/11:30am 11.5 9.1 9.9 90 0.8 SW 13 19 7 10 - - 3.4
24/11:21am 11.6 9.2 10.0 90 0.8 SW 13 17 7 9 - - 3.0
24/11:00am 11.6 9.5 9.9 89 0.9 WSW 11 13 6 7 - - 1.6
24/10:30am 12.0 9.5 9.7 86 1.2 SW 13 26 7 14 - - 0.6
24/10:00am 12.6 9.0 9.8 83 1.4 SSW 19 28 10 15 - - 0.4
24/09:30am 12.1 7.9 9.7 85 1.2 SSW 22 30 12 16 - - 0.4
24/09:00am 12.0 8.7 9.4 84 1.3 SW 17 24 9 13 - - 3.0
24/08:30am 12.1 8.6 8.9 81 1.6 SW 17 22 9 12 - - 2.6
24/08:00am 11.8 7.9 8.8 82 1.5 SW 19 26 10 14 - - 2.6
24/07:30am 11.5 7.7 8.9 84 1.3 SW 19 24 10 13 - - 2.6
24/07:00am 11.4 7.9 8.8 84 1.3 SW 17 20 9 11 - - 2.6
24/06:30am 11.3 8.2 8.9 85 1.2 WSW 15 19 8 10 - - 2.6
24/06:00am 11.1 8.0 9.0 87 1.0 SW 15 17 8 9 - - 2.6
24/05:30am 11.1 8.0 9.0 87 1.0 SW 15 19 8 10 - - 2.6
24/05:00am 11.0 8.8 9.3 89 0.8 SW 11 15 6 8 - - 2.6
24/04:30am 11.1 8.5 9.2 88 0.9 SW 13 17 7 9 - - 1.8
24/04:00am 11.4 8.0 9.3 87 1.1 SW 17 24 9 13 - - 1.4
24/03:30am 11.2 8.2 9.3 88 1.0 SW 15 20 8 11 - - 1.4
24/03:00am 11.2 8.2 9.3 88 1.0 SW 15 20 8 11 - - 1.2
24/02:30am 11.1 7.7 9.2 88 0.9 SW 17 20 9 11 - - 1.2
24/02:00am 11.2 7.4 9.1 87 1.0 SW 19 22 10 12 - - 1.0
24/01:30am 11.5 8.8 9.1 85 1.2 SW 13 20 7 11 - - 0.4
24/01:00am 11.7 8.5 8.6 81 1.5 SW 15 19 8 10 - - 0.0
24/12:30am 11.8 9.0 8.6 81 1.6 SW 13 19 7 10 - - 0.0
24/12:00am 11.7 9.4 9.1 84 1.3 WSW 11 13 6 7 - - 0.0
 
Date/Time
EST
Temp
°C
App
Temp
°C
Dew
Point
°C
Rel
Hum
%
Delta-T
°C
Wind Press
QNH
hPa
Press
MSL
hPa
Rain since
9am
mm
Dir  Spd
km/h
Gust
km/h
Spd
kts
Gust
kts
23/11:30pm 11.8 9.1 9.0 83 1.4 SW 13 15 7 8 - - 0.0
23/11:00pm 12.2 10.4 9.4 83 1.4 WSW 9 11 5 6 - - 0.0
23/10:30pm 12.3 10.2 9.7 84 1.3 W 11 15 6 8 - - 0.0
23/10:00pm 13.6 8.7 10.0 79 1.9 S 26 32 14 17 - - 0.0
23/09:30pm 13.4 9.8 10.6 83 1.5 S 20 30 11 16 - - 0.0
23/09:00pm 12.9 10.9 8.6 75 2.1 WSW 9 11 5 6 - - 0.0
23/08:30pm 13.2 10.1 8.7 74 2.3 SW 15 26 8 14 - - 0.0
23/08:00pm 13.7 9.6 8.7 72 2.5 SSW 20 30 11 16 - - 0.0
23/07:30pm 13.5 9.2 9.4 76 2.1 S 22 26 12 14 - - 0.0
23/07:00pm 13.7 9.9 9.9 78 2.0 S 20 24 11 13 - - 0.0
23/06:30pm 13.5 9.1 7.3 66 3.0 SSW 20 24 11 13 - - 0.0
23/06:00pm 13.1 9.4 8.0 71 2.5 SSW 17 22 9 12 - - 0.0
23/05:30pm 13.6 10.2 9.3 75 2.2 S 17 22 9 12 - - 0.0
23/05:00pm 13.7 8.7 7.9 68 2.9 SSW 24 28 13 15 - - 0.0
23/04:30pm 14.1 8.8 8.3 68 2.9 S 26 33 14 18 - - 0.0
23/04:00pm 14.7 10.8 7.3 61 3.6 SW 17 24 9 13 - - 0.0
23/03:30pm 14.6 9.5 7.6 63 3.5 S 24 30 13 16 - - 0.0
23/03:00pm 14.8 8.9 7.6 62 3.6 S 28 33 15 18 - - 0.0
23/02:30pm 15.4 9.4 7.2 58 4.0 SSW 28 35 15 19 - - 0.0
23/02:00pm 15.0 9.1 7.3 60 3.8 SSW 28 37 15 20 - - 0.0
23/01:30pm 14.7 8.8 7.5 62 3.6 SSW 28 35 15 19 - - 0.0
23/01:00pm 14.8 9.9 7.1 60 3.8 SW 22 35 12 19 - - 0.0
23/12:30pm 14.7 7.9 7.5 62 3.6 SSW 33 44 18 24 - - 0.0
23/12:00pm 14.9 8.7 7.7 62 3.6 SSW 30 39 16 21 - - 0.0
23/11:30am 15.5 8.9 7.8 60 3.8 SSW 32 43 17 23 - - 0.0
23/11:00am 15.4 10.0 7.9 61 3.8 SSW 26 35 14 19 - - 0.0
23/10:30am 14.5 8.4 6.8 60 3.7 SSW 28 43 15 23 - - 0.0
23/10:00am 14.9 10.0 6.7 58 4.0 SW 22 32 12 17 - - 0.0
23/09:30am 14.3 8.7 7.1 62 3.5 SSW 26 37 14 20 - - 0.0
23/09:00am 13.9 7.4 6.5 61 3.6 SW 30 37 16 20 - - 0.2
23/08:30am 13.4 8.8 6.7 64 3.2 SW 20 32 11 17 - - 0.2
23/08:00am 12.6 8.2 6.4 66 2.9 SW 19 24 10 13 - - 0.2
23/07:30am 11.8 7.7 6.1 68 2.7 SW 17 24 9 13 - - 0.2
23/07:00am 10.8 8.1 5.8 71 2.3 WSW 9 13 5 7 - - 0.2
23/06:30am 10.7 6.9 5.7 71 2.3 SW 15 20 8 11 - - 0.2
23/06:00am 10.2 7.5 5.4 72 2.2 WSW 9 15 5 8 - - 0.2
23/05:30am 10.3 7.9 5.3 71 2.3 W 7 9 4 5 - - 0.2
23/05:00am 10.1 7.3 5.3 72 2.2 SSW 9 11 5 6 - - 0.2
23/04:30am 10.2 6.6 5.0 70 2.3 W 13 17 7 9 - - 0.2
23/04:00am 9.9 6.7 4.9 71 2.2 W 11 13 6 7 - - 0.2
23/03:30am 9.9 7.5 5.3 73 2.1 NW 7 9 4 5 - - 0.2
23/03:00am 10.1 7.3 5.3 72 2.2 WNW 9 11 5 6 - - 0.2
23/02:30am 10.0 7.3 5.4 73 2.1 W 9 15 5 8 - - 0.2
23/02:00am 9.8 7.5 4.8 71 2.2 WSW 6 9 3 5 - - 0.2
23/01:30am 10.4 5.8 5.4 71 2.3 NW 19 26 10 14 - - 0.2
23/01:00am 10.7 6.9 5.7 71 2.3 W 15 19 8 10 - - 0.2
23/12:30am 11.4 8.0 5.9 69 2.6 WSW 13 28 7 15 - - 0.2
23/12:00am 11.3 7.2 6.0 70 2.5 NW 17 24 9 13 - - 0.2
 
Date/Time
EST
Temp
°C
App
Temp
°C
Dew
Point
°C
Rel
Hum
%
Delta-T
°C
Wind Press
QNH
hPa
Press
MSL
hPa
Rain since
9am
mm
Dir  Spd
km/h
Gust
km/h
Spd
kts
Gust
kts
22/11:30pm 11.5 8.1 6.0 69 2.6 WSW 13 24 7 13 - - 0.2
22/11:00pm 11.2 9.1 5.7 69 2.5 W 6 13 3 7 - - 0.2
22/10:30pm 11.4 6.6 5.5 67 2.7 WNW 20 33 11 18 - - 0.2
22/10:00pm 10.8 7.5 6.2 73 2.1 NNW 13 20 7 11 - - 0.2
22/09:30pm 10.6 8.4 6.0 73 2.1 WNW 7 13 4 7 - - 0.2
22/09:00pm 11.2 7.7 5.3 67 2.7 WNW 13 20 7 11 - - 0.0
22/08:30pm 11.3 8.9 5.4 67 2.7 WNW 7 17 4 9 - - 0.0
22/08:00pm 11.0 7.9 5.5 69 2.5 W 11 20 6 11 - - 0.0
22/07:30pm 11.0 8.4 6.2 72 2.2 WNW 9 17 5 9 - - 0.0
22/07:00pm 11.3 7.6 6.2 71 2.4 NW 15 20 8 11 - - 0.0
22/06:30pm 11.7 7.9 5.6 66 2.8 NW 15 22 8 12 - - 0.0
22/06:00pm 12.1 5.7 5.3 63 3.1 NW 28 37 15 20 - - 0.0
22/05:30pm 11.7 7.5 5.8 67 2.7 NW 17 24 9 13 - - 0.0
22/05:00pm 12.1 7.7 6.4 68 2.7 NNW 19 22 10 12 - - 0.0
22/04:30pm 12.2 6.2 6.9 70 2.5 NNW 28 41 15 22 - - 0.0

Latest Capital City Observations: Canberra | Sydney | Melbourne | Brisbane | Adelaide | Perth | Hobart | Darwin

Other Formats:

Comma delimited format used in spreadsheet applications
http://www.bom.gov.au/fwo/IDN60901/IDN60901.94749.axf

JavaScript Object Notation format (JSON) in row-major order
http://www.bom.gov.au/fwo/IDN60901/IDN60901.94749.json